createdAt,value
2022-09-14T00:09:54.057Z,5.70
2022-09-14T00:20:00.181Z,5.90
2022-09-14T00:30:07.529Z,5.50
2022-09-14T00:40:13.710Z,5.80
2022-09-14T00:50:20.203Z,5.70
2022-09-14T01:00:27.466Z,5.20
2022-09-14T01:10:42.161Z,5.50
2022-09-14T01:20:53.202Z,5.90
2022-09-14T01:31:02.295Z,5.90
2022-09-14T01:41:11.206Z,5.60
2022-09-14T01:51:20.424Z,5.80
2022-09-14T02:01:31.120Z,7.10
2022-09-14T02:11:37.716Z,7.40
2022-09-14T02:21:43.853Z,7.40
2022-09-14T02:32:08.544Z,6.60
2022-09-14T02:42:29.961Z,5.90
2022-09-14T02:52:46.929Z,6.10
2022-09-14T03:02:52.971Z,6.40
2022-09-14T03:12:59.242Z,7.20
2022-09-14T03:23:06.056Z,5.70
2022-09-14T03:33:12.139Z,6.10
2022-09-14T03:43:18.231Z,6.30
2022-09-14T03:53:24.332Z,6.60
2022-09-14T04:03:30.361Z,6.20
2022-09-14T04:13:36.576Z,6.60
2022-09-14T04:24:03.330Z,6.40
2022-09-14T04:34:08.653Z,6.30
2022-09-14T04:44:14.927Z,6.10
2022-09-14T04:54:21.697Z,5.60
2022-09-14T05:04:27.790Z,5.70
2022-09-14T05:14:33.834Z,6.30
2022-09-14T05:24:40.421Z,6.80
2022-09-14T05:34:46.478Z,7.30
2022-09-14T05:44:52.631Z,6.80
2022-09-14T05:54:58.644Z,6.60
2022-09-14T06:05:04.774Z,5.90
2022-09-14T06:15:12.094Z,6.70
2022-09-14T06:25:22.058Z,6.30
2022-09-14T06:35:28.125Z,5.80
2022-09-14T06:45:34.335Z,6.40
2022-09-14T06:55:46.972Z,6.30
2022-09-14T07:05:53.012Z,6.20
2022-09-14T07:15:59.067Z,6.90
2022-09-14T07:26:06.955Z,7.20
2022-09-14T07:36:13.756Z,7.00
2022-09-14T07:46:20.820Z,7.50
2022-09-14T07:56:27.048Z,6.30
2022-09-14T08:06:33.532Z,7.00
2022-09-14T08:16:40.122Z,7.10
2022-09-14T08:26:46.293Z,7.20
2022-09-14T08:36:52.447Z,6.50
2022-09-14T08:47:05.916Z,6.30
2022-09-14T08:57:19.526Z,6.10
2022-09-14T09:07:31.639Z,5.40
2022-09-14T09:17:43.209Z,6.10
2022-09-14T09:27:48.831Z,6.10
2022-09-14T09:37:54.916Z,5.90
2022-09-14T09:48:09.536Z,7.50
2022-09-14T09:58:29.812Z,6.70
2022-09-14T10:08:40.814Z,7.10
2022-09-14T10:18:49.122Z,6.60
2022-09-14T10:28:55.524Z,7.00
2022-09-14T10:39:04.620Z,6.90
2022-09-14T10:49:26.676Z,6.30
2022-09-14T10:59:36.399Z,5.80
2022-09-14T11:10:02.747Z,6.70
2022-09-14T11:20:27.783Z,7.10
2022-09-14T11:30:45.433Z,7.20
2022-09-14T11:40:55.254Z,7.00
2022-09-14T11:51:06.064Z,7.70
2022-09-14T12:01:30.989Z,7.40
2022-09-14T12:11:37.408Z,8.40
2022-09-14T12:21:43.513Z,7.50
2022-09-14T12:31:52.565Z,7.20
2022-09-14T12:42:00.500Z,6.20
2022-09-14T12:52:14.181Z,7.30
2022-09-14T13:02:39.379Z,6.40
2022-09-14T13:12:46.481Z,6.40
2022-09-14T13:22:52.614Z,7.50
2022-09-14T13:32:59.217Z,7.70
2022-09-14T13:43:05.358Z,9.20
2022-09-14T13:53:30.278Z,7.30
2022-09-14T14:03:40.978Z,7.30
2022-09-14T14:13:47.041Z,7.00
2022-09-14T14:24:12.145Z,6.20
2022-09-14T14:34:20.277Z,5.50
2022-09-14T14:44:30.343Z,5.50
2022-09-14T14:54:36.553Z,5.50
2022-09-14T15:04:42.688Z,11.70
2022-09-14T15:14:49.773Z,7.40
2022-09-14T15:24:55.845Z,7.10
2022-09-14T15:35:01.979Z,9.10
2022-09-14T15:45:08.295Z,10.30
2022-09-14T15:55:14.297Z,9.60
2022-09-14T16:05:20.384Z,9.80
2022-09-14T16:15:26.489Z,9.00
2022-09-14T16:25:32.964Z,7.60
2022-09-14T16:35:39.131Z,6.10
2022-09-14T16:45:45.229Z,5.20
2022-09-14T16:55:51.468Z,5.20
2022-09-14T17:06:12.792Z,5.90
2022-09-14T17:16:20.944Z,6.30
2022-09-14T17:26:27.169Z,5.80
2022-09-14T17:36:33.498Z,6.50
2022-09-14T17:46:48.137Z,8.60
2022-09-14T17:56:57.292Z,10.60
2022-09-14T18:07:04.563Z,9.50
2022-09-14T18:17:10.675Z,10.00
2022-09-14T18:27:16.805Z,9.70
2022-09-14T18:37:24.213Z,9.40
2022-09-14T18:47:30.904Z,7.80
2022-09-14T18:57:36.976Z,9.50
2022-09-14T19:07:43.093Z,8.90
2022-09-14T19:17:49.216Z,9.30
2022-09-14T19:27:55.312Z,9.70
2022-09-14T19:38:01.381Z,10.30
2022-09-14T19:48:07.441Z,10.70
2022-09-14T19:58:13.899Z,10.30
2022-09-14T20:08:21.316Z,11.00
2022-09-14T20:18:27.464Z,13.30
2022-09-14T20:28:36.321Z,15.70
2022-09-14T20:38:45.686Z,16.00
2022-09-14T20:48:54.659Z,14.20
2022-09-14T20:59:02.337Z,12.50
2022-09-14T21:09:09.337Z,11.50
2022-09-14T21:19:20.718Z,13.30
2022-09-14T21:29:26.840Z,14.60
2022-09-14T21:39:33.205Z,12.70
2022-09-14T21:49:39.701Z,12.30
2022-09-14T21:59:45.832Z,11.80
2022-09-14T22:09:53.853Z,12.00
2022-09-14T22:20:00.629Z,12.70
2022-09-14T22:30:07.007Z,12.70
2022-09-14T22:40:13.359Z,11.80
2022-09-14T22:50:17.981Z,10.20
2022-09-14T23:00:24.590Z,10.70
2022-09-14T23:10:30.658Z,11.30
2022-09-14T23:20:38.374Z,10.00
2022-09-14T23:30:52.852Z,12.50
2022-09-14T23:40:59.930Z,14.20
2022-09-14T23:51:06.890Z,15.80
